sensor_id;sensor_type;location;lat;lon;timestamp;pressure;altitude;pressure_sealevel;temperature;humidity
29825;BME280;16713;52.916;12.834;2022-09-27T00:01:08;99024.84;;;12.88;68.84
29825;BME280;16713;52.916;12.834;2022-09-27T00:03:34;99023.22;;;12.94;69.01
29825;BME280;16713;52.916;12.834;2022-09-27T00:06:02;99012.91;;;13.02;69.20
29825;BME280;16713;52.916;12.834;2022-09-27T00:08:31;99009.16;;;12.85;68.68
29825;BME280;16713;52.916;12.834;2022-09-27T00:11:01;99010.16;;;12.68;69.72
29825;BME280;16713;52.916;12.834;2022-09-27T00:13:28;99006.13;;;12.76;69.73
29825;BME280;16713;52.916;12.834;2022-09-27T00:15:58;99004.94;;;12.77;69.79
29825;BME280;16713;52.916;12.834;2022-09-27T00:18:26;99002.03;;;12.54;69.10
29825;BME280;16713;52.916;12.834;2022-09-27T00:20:52;99005.53;;;12.58;69.74
29825;BME280;16713;52.916;12.834;2022-09-27T00:23:19;98993.03;;;12.50;69.09
29825;BME280;16713;52.916;12.834;2022-09-27T00:25:55;98997.38;;;12.51;69.31
29825;BME280;16713;52.916;12.834;2022-09-27T00:28:21;98995.03;;;12.50;69.64
29825;BME280;16713;52.916;12.834;2022-09-27T00:30:48;98988.38;;;12.44;69.56
29825;BME280;16713;52.916;12.834;2022-09-27T00:33:14;98979.41;;;12.40;69.37
29825;BME280;16713;52.916;12.834;2022-09-27T00:35:41;98986.81;;;12.46;70.49
29825;BME280;16713;52.916;12.834;2022-09-27T00:38:07;98976.66;;;12.40;70.24
29825;BME280;16713;52.916;12.834;2022-09-27T00:40:33;98974.75;;;12.33;70.02
29825;BME280;16713;52.916;12.834;2022-09-27T00:43:00;98978.63;;;12.39;71.04
29825;BME280;16713;52.916;12.834;2022-09-27T00:45:26;98966.41;;;12.40;69.79
29825;BME280;16713;52.916;12.834;2022-09-27T00:47:56;98962.59;;;12.31;70.95
29825;BME280;16713;52.916;12.834;2022-09-27T00:55:27;98951.72;;;12.20;71.05
29825;BME280;16713;52.916;12.834;2022-09-27T00:57:54;98953.34;;;12.14;71.35
29825;BME280;16713;52.916;12.834;2022-09-27T01:00:21;98958.25;;;12.33;70.45
29825;BME280;16713;52.916;12.834;2022-09-27T01:02:49;98952.97;;;12.12;70.89
29825;BME280;16713;52.916;12.834;2022-09-27T01:05:16;98941.19;;;12.12;71.93
29825;BME280;16713;52.916;12.834;2022-09-27T01:07:45;98941.69;;;12.03;71.25
29825;BME280;16713;52.916;12.834;2022-09-27T01:10:11;98935.78;;;12.05;71.36
29825;BME280;16713;52.916;12.834;2022-09-27T01:16:17;98936.94;;;12.07;71.10
29825;BME280;16713;52.916;12.834;2022-09-27T01:25:54;98926.69;;;12.11;71.93
29825;BME280;16713;52.916;12.834;2022-09-27T01:31:13;98928.34;;;12.39;70.99
29825;BME280;16713;52.916;12.834;2022-09-27T01:36:16;98925.38;;;12.56;70.39
29825;BME280;16713;52.916;12.834;2022-09-27T01:41:26;98916.78;;;12.54;69.98
29825;BME280;16713;52.916;12.834;2022-09-27T01:48:59;98901.75;;;12.66;69.44
29825;BME280;16713;52.916;12.834;2022-09-27T01:51:29;98904.81;;;12.71;70.21
29825;BME280;16713;52.916;12.834;2022-09-27T01:54:00;98907.06;;;12.80;70.65
29825;BME280;16713;52.916;12.834;2022-09-27T01:56:34;98903.22;;;12.74;70.85
29825;BME280;16713;52.916;12.834;2022-09-27T02:01:29;98889.72;;;12.83;69.91
29825;BME280;16713;52.916;12.834;2022-09-27T02:03:57;98892.84;;;12.85;69.72
29825;BME280;16713;52.916;12.834;2022-09-27T02:06:29;98889.81;;;12.76;70.05
29825;BME280;16713;52.916;12.834;2022-09-27T02:08:57;98890.97;;;12.78;70.32
29825;BME280;16713;52.916;12.834;2022-09-27T02:11:24;98876.66;;;12.57;71.53
29825;BME280;16713;52.916;12.834;2022-09-27T02:18:50;98878.09;;;12.72;70.95
29825;BME280;16713;52.916;12.834;2022-09-27T02:21:19;98872.66;;;12.65;72.13
29825;BME280;16713;52.916;12.834;2022-09-27T02:23:55;98870.03;;;12.54;72.69
29825;BME280;16713;52.916;12.834;2022-09-27T02:26:35;98865.00;;;12.49;71.85
29825;BME280;16713;52.916;12.834;2022-09-27T02:29:04;98870.44;;;12.53;72.63
29825;BME280;16713;52.916;12.834;2022-09-27T02:31:32;98867.75;;;12.49;73.21
29825;BME280;16713;52.916;12.834;2022-09-27T02:34:00;98861.50;;;12.45;72.40
29825;BME280;16713;52.916;12.834;2022-09-27T02:36:27;98851.78;;;12.37;72.86
29825;BME280;16713;52.916;12.834;2022-09-27T02:38:54;98858.13;;;12.31;72.92
29825;BME280;16713;52.916;12.834;2022-09-27T02:41:20;98850.25;;;12.33;73.20
29825;BME280;16713;52.916;12.834;2022-09-27T02:43:48;98853.75;;;12.37;72.72
29825;BME280;16713;52.916;12.834;2022-09-27T02:49:31;98846.44;;;12.23;73.62
29825;BME280;16713;52.916;12.834;2022-09-27T02:56:53;98842.50;;;11.90;74.08
29825;BME280;16713;52.916;12.834;2022-09-27T03:01:59;98836.22;;;11.93;75.00
29825;BME280;16713;52.916;12.834;2022-09-27T03:04:33;98838.66;;;11.81;74.56
29825;BME280;16713;52.916;12.834;2022-09-27T03:07:03;98837.06;;;11.87;75.40
29825;BME280;16713;52.916;12.834;2022-09-27T03:09:39;98833.69;;;11.72;75.76
29825;BME280;16713;52.916;12.834;2022-09-27T03:12:06;98834.84;;;11.71;75.86
29825;BME280;16713;52.916;12.834;2022-09-27T03:14:32;98828.06;;;11.83;76.07
29825;BME280;16713;52.916;12.834;2022-09-27T03:16:58;98823.34;;;11.83;76.01
29825;BME280;16713;52.916;12.834;2022-09-27T03:19:25;98818.34;;;11.75;76.19
29825;BME280;16713;52.916;12.834;2022-09-27T03:21:51;98828.81;;;11.87;76.21
29825;BME280;16713;52.916;12.834;2022-09-27T03:24:18;98817.63;;;12.05;76.26
29825;BME280;16713;52.916;12.834;2022-09-27T03:26:44;98818.91;;;11.97;75.78
29825;BME280;16713;52.916;12.834;2022-09-27T03:29:10;98819.03;;;12.16;75.38
29825;BME280;16713;52.916;12.834;2022-09-27T03:31:37;98812.56;;;12.33;74.83
29825;BME280;16713;52.916;12.834;2022-09-27T03:34:03;98814.81;;;12.42;74.87
29825;BME280;16713;52.916;12.834;2022-09-27T03:36:30;98814.72;;;12.49;73.48
29825;BME280;16713;52.916;12.834;2022-09-27T03:38:56;98815.38;;;12.56;73.10
29825;BME280;16713;52.916;12.834;2022-09-27T03:41:22;98810.41;;;12.48;73.03
29825;BME280;16713;52.916;12.834;2022-09-27T03:43:49;98803.00;;;12.45;73.33
29825;BME280;16713;52.916;12.834;2022-09-27T03:46:15;98805.28;;;12.50;73.32
29825;BME280;16713;52.916;12.834;2022-09-27T03:48:42;98807.44;;;12.65;73.22
29825;BME280;16713;52.916;12.834;2022-09-27T03:51:08;98797.13;;;12.43;73.14
29825;BME280;16713;52.916;12.834;2022-09-27T03:53:37;98799.53;;;12.37;74.19
29825;BME280;16713;52.916;12.834;2022-09-27T03:56:03;98794.31;;;12.46;74.07
29825;BME280;16713;52.916;12.834;2022-09-27T03:58:29;98791.88;;;12.52;73.41
29825;BME280;16713;52.916;12.834;2022-09-27T04:00:56;98785.34;;;12.42;73.82
29825;BME280;16713;52.916;12.834;2022-09-27T04:03:22;98789.09;;;12.55;73.89
29825;BME280;16713;52.916;12.834;2022-09-27T04:05:48;98783.50;;;12.32;74.06
29825;BME280;16713;52.916;12.834;2022-09-27T04:08:15;98786.09;;;12.46;74.42
29825;BME280;16713;52.916;12.834;2022-09-27T04:10:41;98773.09;;;12.47;74.83
29825;BME280;16713;52.916;12.834;2022-09-27T04:13:08;98777.97;;;12.36;73.88
29825;BME280;16713;52.916;12.834;2022-09-27T04:15:34;98783.13;;;12.34;74.13
29825;BME280;16713;52.916;12.834;2022-09-27T04:18:00;98779.63;;;12.30;75.43
29825;BME280;16713;52.916;12.834;2022-09-27T04:20:27;98775.59;;;12.08;75.35
29825;BME280;16713;52.916;12.834;2022-09-27T04:22:53;98776.66;;;12.17;75.80
29825;BME280;16713;52.916;12.834;2022-09-27T04:25:19;98775.25;;;12.02;76.08
29825;BME280;16713;52.916;12.834;2022-09-27T04:27:46;98763.50;;;12.02;75.50
29825;BME280;16713;52.916;12.834;2022-09-27T04:30:13;98768.53;;;12.07;75.88
29825;BME280;16713;52.916;12.834;2022-09-27T04:32:41;98774.53;;;11.98;76.31
29825;BME280;16713;52.916;12.834;2022-09-27T04:35:07;98762.31;;;12.03;76.72
29825;BME280;16713;52.916;12.834;2022-09-27T04:37:52;98763.63;;;11.91;76.96
29825;BME280;16713;52.916;12.834;2022-09-27T04:40:19;98752.25;;;11.89;77.25
29825;BME280;16713;52.916;12.834;2022-09-27T04:42:47;98757.94;;;12.05;76.80
29825;BME280;16713;52.916;12.834;2022-09-27T04:45:14;98766.00;;;11.89;78.17
29825;BME280;16713;52.916;12.834;2022-09-27T04:47:43;98756.53;;;11.93;77.54
29825;BME280;16713;52.916;12.834;2022-09-27T04:50:10;98761.31;;;11.86;78.32
29825;BME280;16713;52.916;12.834;2022-09-27T04:52:37;98762.59;;;11.78;77.81
29825;BME280;16713;52.916;12.834;2022-09-27T04:55:03;98755.50;;;11.80;77.95
29825;BME280;16713;52.916;12.834;2022-09-27T04:57:30;98756.00;;;11.72;78.08
29825;BME280;16713;52.916;12.834;2022-09-27T04:59:56;98765.72;;;11.80;78.44
29825;BME280;16713;52.916;12.834;2022-09-27T05:02:25;98749.72;;;11.71;77.65
29825;BME280;16713;52.916;12.834;2022-09-27T05:04:52;98755.22;;;11.71;78.63
29825;BME280;16713;52.916;12.834;2022-09-27T05:07:21;98757.13;;;11.74;78.36
29825;BME280;16713;52.916;12.834;2022-09-27T05:09:47;98748.19;;;11.67;79.33
29825;BME280;16713;52.916;12.834;2022-09-27T05:12:14;98746.72;;;11.59;78.69
29825;BME280;16713;52.916;12.834;2022-09-27T05:14:40;98755.34;;;11.57;78.85
29825;BME280;16713;52.916;12.834;2022-09-27T05:17:06;98756.25;;;11.84;78.94
29825;BME280;16713;52.916;12.834;2022-09-27T05:19:33;98748.56;;;11.69;78.74
29825;BME280;16713;52.916;12.834;2022-09-27T05:21:59;98754.38;;;11.74;78.82
29825;BME280;16713;52.916;12.834;2022-09-27T05:24:26;98756.28;;;11.81;78.84
29825;BME280;16713;52.916;12.834;2022-09-27T05:26:58;98752.59;;;11.94;77.99
29825;BME280;16713;52.916;12.834;2022-09-27T05:29:24;98758.88;;;11.95;79.05
29825;BME280;16713;52.916;12.834;2022-09-27T05:31:50;98755.78;;;11.89;78.92
29825;BME280;16713;52.916;12.834;2022-09-27T05:34:17;98752.41;;;12.09;78.42
29825;BME280;16713;52.916;12.834;2022-09-27T05:36:48;98757.25;;;11.97;78.51
29825;BME280;16713;52.916;12.834;2022-09-27T05:39:15;98756.06;;;11.98;78.72
29825;BME280;16713;52.916;12.834;2022-09-27T05:41:42;98753.19;;;12.09;78.23
29825;BME280;16713;52.916;12.834;2022-09-27T05:44:09;98746.09;;;12.12;78.16
29825;BME280;16713;52.916;12.834;2022-09-27T05:46:35;98744.91;;;12.13;77.80
29825;BME280;16713;52.916;12.834;2022-09-27T05:49:01;98743.56;;;12.24;78.33
29825;BME280;16713;52.916;12.834;2022-09-27T05:51:28;98745.97;;;12.22;77.55
29825;BME280;16713;52.916;12.834;2022-09-27T05:53:54;98744.25;;;12.32;77.42
29825;BME280;16713;52.916;12.834;2022-09-27T05:56:20;98743.41;;;12.35;77.58
29825;BME280;16713;52.916;12.834;2022-09-27T05:58:47;98744.50;;;12.41;77.43
29825;BME280;16713;52.916;12.834;2022-09-27T06:01:13;98737.59;;;12.29;77.06
29825;BME280;16713;52.916;12.834;2022-09-27T06:03:40;98738.63;;;12.39;77.03
29825;BME280;16713;52.916;12.834;2022-09-27T06:06:06;98740.41;;;12.26;77.98
29825;BME280;16713;52.916;12.834;2022-09-27T06:08:33;98747.50;;;12.23;78.58
29825;BME280;16713;52.916;12.834;2022-09-27T06:11:00;98734.50;;;12.27;78.75
29825;BME280;16713;52.916;12.834;2022-09-27T06:13:29;98735.69;;;12.26;78.46
29825;BME280;16713;52.916;12.834;2022-09-27T06:15:55;98741.53;;;12.28;78.79
29825;BME280;16713;52.916;12.834;2022-09-27T06:18:21;98737.59;;;12.29;78.82
29825;BME280;16713;52.916;12.834;2022-09-27T06:20:48;98735.31;;;12.24;78.38
29825;BME280;16713;52.916;12.834;2022-09-27T06:23:18;98727.69;;;12.09;78.24
29825;BME280;16713;52.916;12.834;2022-09-27T06:25:45;98725.03;;;12.02;79.98
29825;BME280;16713;52.916;12.834;2022-09-27T06:28:12;98736.78;;;12.02;79.97
29825;BME280;16713;52.916;12.834;2022-09-27T06:30:40;98731.41;;;11.95;79.41
29825;BME280;16713;52.916;12.834;2022-09-27T06:33:08;98732.16;;;11.95;79.12
29825;BME280;16713;52.916;12.834;2022-09-27T06:35:34;98735.31;;;11.94;80.07
29825;BME280;16713;52.916;12.834;2022-09-27T06:38:04;98729.59;;;11.81;80.90
29825;BME280;16713;52.916;12.834;2022-09-27T06:40:32;98729.09;;;11.90;81.12
29825;BME280;16713;52.916;12.834;2022-09-27T06:43:05;98732.16;;;11.95;80.64
29825;BME280;16713;52.916;12.834;2022-09-27T06:45:33;98724.50;;;11.80;80.74
29825;BME280;16713;52.916;12.834;2022-09-27T06:48:04;98733.81;;;11.89;81.05
29825;BME280;16713;52.916;12.834;2022-09-27T06:50:32;98730.72;;;11.84;80.39
29825;BME280;16713;52.916;12.834;2022-09-27T06:52:58;98717.16;;;11.70;81.58
29825;BME280;16713;52.916;12.834;2022-09-27T06:55:24;98729.97;;;11.83;81.85
29825;BME280;16713;52.916;12.834;2022-09-27T06:57:54;98724.84;;;11.85;81.58
29825;BME280;16713;52.916;12.834;2022-09-27T07:00:40;98727.28;;;11.76;81.30
29825;BME280;16713;52.916;12.834;2022-09-27T07:03:08;98724.66;;;11.69;81.92
29825;BME280;16713;52.916;12.834;2022-09-27T07:05:34;98720.72;;;11.70;81.84
29825;BME280;16713;52.916;12.834;2022-09-27T07:08:01;98721.72;;;11.83;82.20
29825;BME280;16713;52.916;12.834;2022-09-27T07:10:28;98718.66;;;11.78;82.68
29825;BME280;16713;52.916;12.834;2022-09-27T07:12:55;98726.50;;;11.76;82.22
29825;BME280;16713;52.916;12.834;2022-09-27T07:15:21;98728.78;;;11.84;82.08
29825;BME280;16713;52.916;12.834;2022-09-27T07:17:55;98721.22;;;11.92;82.42
29825;BME280;16713;52.916;12.834;2022-09-27T07:20:21;98727.53;;;11.89;82.44
29825;BME280;16713;52.916;12.834;2022-09-27T07:22:47;98726.25;;;11.97;82.69
29825;BME280;16713;52.916;12.834;2022-09-27T07:25:14;98727.38;;;12.03;82.70
29825;BME280;16713;52.916;12.834;2022-09-27T07:27:40;98726.88;;;12.08;82.57
29825;BME280;16713;52.916;12.834;2022-09-27T07:30:07;98727.63;;;12.12;82.05
29825;BME280;16713;52.916;12.834;2022-09-27T07:32:34;98732.31;;;12.15;81.68
29825;BME280;16713;52.916;12.834;2022-09-27T07:35:03;98723.75;;;12.10;82.03
29825;BME280;16713;52.916;12.834;2022-09-27T07:37:30;98728.75;;;12.15;81.66
29825;BME280;16713;52.916;12.834;2022-09-27T07:39:58;98726.31;;;12.24;82.05
29825;BME280;16713;52.916;12.834;2022-09-27T07:42:24;98728.63;;;12.25;81.43
29825;BME280;16713;52.916;12.834;2022-09-27T07:44:50;98728.59;;;12.29;81.01
29825;BME280;16713;52.916;12.834;2022-09-27T07:47:16;98730.19;;;12.26;80.87
29825;BME280;16713;52.916;12.834;2022-09-27T07:49:44;98728.34;;;12.46;81.24
29825;BME280;16713;52.916;12.834;2022-09-27T07:52:10;98729.16;;;12.43;80.94
29825;BME280;16713;52.916;12.834;2022-09-27T07:54:37;98735.38;;;12.47;80.15
29825;BME280;16713;52.916;12.834;2022-09-27T07:57:04;98724.34;;;12.51;80.51
29825;BME280;16713;52.916;12.834;2022-09-27T07:59:30;98726.56;;;12.59;79.51
29825;BME280;16713;52.916;12.834;2022-09-27T08:01:56;98731.28;;;12.59;80.39
29825;BME280;16713;52.916;12.834;2022-09-27T08:04:24;98731.69;;;12.57;80.80
29825;BME280;16713;52.916;12.834;2022-09-27T08:06:50;98727.38;;;12.56;80.70
29825;BME280;16713;52.916;12.834;2022-09-27T08:09:16;98728.94;;;12.57;80.32
29825;BME280;16713;52.916;12.834;2022-09-27T08:11:43;98728.06;;;12.64;80.76
29825;BME280;16713;52.916;12.834;2022-09-27T08:14:10;98724.25;;;12.58;81.12
29825;BME280;16713;52.916;12.834;2022-09-27T08:16:36;98727.97;;;12.71;79.84
29825;BME280;16713;52.916;12.834;2022-09-27T08:19:03;98730.66;;;12.74;79.94
29825;BME280;16713;52.916;12.834;2022-09-27T08:21:29;98728.06;;;12.64;80.19
29825;BME280;16713;52.916;12.834;2022-09-27T08:23:55;98739.06;;;12.64;80.69
29825;BME280;16713;52.916;12.834;2022-09-27T08:26:22;98736.41;;;12.57;81.43
29825;BME280;16713;52.916;12.834;2022-09-27T08:28:48;98736.03;;;12.55;80.52
29825;BME280;16713;52.916;12.834;2022-09-27T08:31:14;98737.91;;;12.61;80.66
29825;BME280;16713;52.916;12.834;2022-09-27T08:33:41;98739.13;;;12.60;80.90
29825;BME280;16713;52.916;12.834;2022-09-27T08:36:11;98732.72;;;12.70;80.60
29825;BME280;16713;52.916;12.834;2022-09-27T08:38:37;98735.50;;;12.67;80.22
29825;BME280;16713;52.916;12.834;2022-09-27T08:41:06;98734.72;;;12.66;82.16
29825;BME280;16713;52.916;12.834;2022-09-27T08:43:45;98735.47;;;12.70;82.10
29825;BME280;16713;52.916;12.834;2022-09-27T08:49:08;98734.72;;;12.66;82.12
29825;BME280;16713;52.916;12.834;2022-09-27T08:51:37;98731.47;;;12.75;82.37
29825;BME280;16713;52.916;12.834;2022-09-27T08:54:05;98731.88;;;12.73;82.22
29825;BME280;16713;52.916;12.834;2022-09-27T08:56:33;98739.66;;;12.78;81.50
29825;BME280;16713;52.916;12.834;2022-09-27T08:59:15;98733.78;;;12.76;80.70
29825;BME280;16713;52.916;12.834;2022-09-27T09:01:50;98730.34;;;12.95;80.17
29825;BME280;16713;52.916;12.834;2022-09-27T09:04:21;98737.94;;;12.88;80.92
29825;BME280;16713;52.916;12.834;2022-09-27T09:07:02;98735.13;;;12.91;80.36
29825;BME280;16713;52.916;12.834;2022-09-27T09:22:46;98732.06;;;13.09;79.79
29825;BME280;16713;52.916;12.834;2022-09-27T09:25:22;98739.97;;;13.07;78.99
29825;BME280;16713;52.916;12.834;2022-09-27T09:28:03;98736.69;;;13.15;78.04
29825;BME280;16713;52.916;12.834;2022-09-27T09:33:07;98737.75;;;13.21;77.90
29825;BME280;16713;52.916;12.834;2022-09-27T09:35:47;98743.97;;;13.25;77.01
29825;BME280;16713;52.916;12.834;2022-09-27T09:38:23;98742.09;;;13.19;76.82
29825;BME280;16713;52.916;12.834;2022-09-27T09:40:57;98736.31;;;13.13;78.26
29825;BME280;16713;52.916;12.834;2022-09-27T09:43:28;98740.78;;;13.27;78.36
29825;BME280;16713;52.916;12.834;2022-09-27T09:45:59;98737.13;;;13.33;78.14
29825;BME280;16713;52.916;12.834;2022-09-27T09:50:58;98740.19;;;13.39;76.56
29825;BME280;16713;52.916;12.834;2022-09-27T09:55:58;98735.25;;;13.50;75.79
29825;BME280;16713;52.916;12.834;2022-09-27T09:58:31;98732.00;;;13.55;75.89
29825;BME280;16713;52.916;12.834;2022-09-27T10:01:09;98742.13;;;13.62;76.93
29825;BME280;16713;52.916;12.834;2022-09-27T10:03:37;98735.03;;;13.61;75.55
29825;BME280;16713;52.916;12.834;2022-09-27T10:06:03;98735.03;;;13.61;75.51
29825;BME280;16713;52.916;12.834;2022-09-27T10:08:29;98733.88;;;13.62;75.00
29825;BME280;16713;52.916;12.834;2022-09-27T10:10:56;98740.50;;;13.64;74.93
29825;BME280;16713;52.916;12.834;2022-09-27T10:13:22;98738.56;;;13.65;75.05
29825;BME280;16713;52.916;12.834;2022-09-27T10:18:27;98730.31;;;13.61;74.71
29825;BME280;16713;52.916;12.834;2022-09-27T10:20:55;98742.91;;;13.62;75.43
29825;BME280;16713;52.916;12.834;2022-09-27T10:23:22;98747.19;;;13.67;76.17
29825;BME280;16713;52.916;12.834;2022-09-27T10:25:51;98738.91;;;13.67;76.66
29825;BME280;16713;52.916;12.834;2022-09-27T10:28:25;98743.94;;;13.72;75.77
29825;BME280;16713;52.916;12.834;2022-09-27T10:30:55;98745.59;;;13.66;75.09
29825;BME280;16713;52.916;12.834;2022-09-27T10:33:22;98744.53;;;13.60;76.14
29825;BME280;16713;52.916;12.834;2022-09-27T10:35:48;98739.84;;;13.57;76.75
29825;BME280;16713;52.916;12.834;2022-09-27T10:40:49;98747.44;;;13.72;75.49
29825;BME280;16713;52.916;12.834;2022-09-27T10:48:26;98745.13;;;13.71;74.54
29825;BME280;16713;52.916;12.834;2022-09-27T10:50:58;98738.84;;;13.70;76.56
29825;BME280;16713;52.916;12.834;2022-09-27T10:53:25;98738.50;;;13.68;75.17
29825;BME280;16713;52.916;12.834;2022-09-27T10:55:52;98734.59;;;13.66;76.09
29825;BME280;16713;52.916;12.834;2022-09-27T10:58:30;98741.25;;;13.68;75.76
29825;BME280;16713;52.916;12.834;2022-09-27T11:00:57;98747.50;;;13.69;75.48
29825;BME280;16713;52.916;12.834;2022-09-27T11:03:26;98745.19;;;13.67;75.82
29825;BME280;16713;52.916;12.834;2022-09-27T11:05:54;98751.47;;;13.68;75.97
29825;BME280;16713;52.916;12.834;2022-09-27T11:08:22;98765.56;;;13.73;76.95
29825;BME280;16713;52.916;12.834;2022-09-27T11:11:06;98770.47;;;13.82;76.29
29825;BME280;16713;52.916;12.834;2022-09-27T11:13:40;98787.00;;;13.62;73.15
29825;BME280;16713;52.916;12.834;2022-09-27T11:18:45;98788.91;;;13.42;73.35
29825;BME280;16713;52.916;12.834;2022-09-27T11:26:55;98806.91;;;13.00;76.15
29825;BME280;16713;52.916;12.834;2022-09-27T11:32:14;98812.75;;;13.06;76.74
29825;BME280;16713;52.916;12.834;2022-09-27T11:34:42;98807.34;;;12.99;77.32
29825;BME280;16713;52.916;12.834;2022-09-27T11:37:32;98813.53;;;13.29;75.40
29825;BME280;16713;52.916;12.834;2022-09-27T11:48:10;98807.19;;;12.83;76.17
29825;BME280;16713;52.916;12.834;2022-09-27T11:50:55;98805.72;;;12.75;76.33
29825;BME280;16713;52.916;12.834;2022-09-27T11:53:39;98800.13;;;12.52;76.82
29825;BME280;16713;52.916;12.834;2022-09-27T11:56:10;98799.19;;;12.65;78.39
29825;BME280;16713;52.916;12.834;2022-09-27T11:58:57;98804.59;;;12.42;78.16
29825;BME280;16713;52.916;12.834;2022-09-27T12:09:08;98807.69;;;12.14;80.76
29825;BME280;16713;52.916;12.834;2022-09-27T12:11:42;98805.97;;;12.27;79.14
29825;BME280;16713;52.916;12.834;2022-09-27T12:16:55;98804.91;;;12.48;79.70
29825;BME280;16713;52.916;12.834;2022-09-27T12:19:23;98806.47;;;12.49;80.27
29825;BME280;16713;52.916;12.834;2022-09-27T12:21:53;98810.81;;;12.46;80.69
29825;BME280;16713;52.916;12.834;2022-09-27T12:24:21;98798.84;;;12.60;80.42
29825;BME280;16713;52.916;12.834;2022-09-27T12:26:49;98806.38;;;12.56;78.51
29825;BME280;16713;52.916;12.834;2022-09-27T12:29:19;98801.69;;;12.53;77.46
29825;BME280;16713;52.916;12.834;2022-09-27T12:34:38;98813.03;;;12.55;75.33
29825;BME280;16713;52.916;12.834;2022-09-27T12:37:10;98808.38;;;12.52;76.41
29825;BME280;16713;52.916;12.834;2022-09-27T12:42:16;98808.34;;;12.25;77.04
29825;BME280;16713;52.916;12.834;2022-09-27T12:44:44;98820.94;;;12.53;77.39
29825;BME280;16713;52.916;12.834;2022-09-27T12:52:30;98816.97;;;12.57;76.75
29825;BME280;16713;52.916;12.834;2022-09-27T12:57:50;98817.78;;;12.54;77.52
29825;BME280;16713;52.916;12.834;2022-09-27T13:00:25;98817.69;;;12.31;75.78
29825;BME280;16713;52.916;12.834;2022-09-27T13:10:44;98823.97;;;12.62;77.05
29825;BME280;16713;52.916;12.834;2022-09-27T13:13:15;98810.22;;;12.62;75.75
29825;BME280;16713;52.916;12.834;2022-09-27T13:15:42;98820.13;;;12.56;74.91
29825;BME280;16713;52.916;12.834;2022-09-27T13:20:55;98823.03;;;12.75;75.14
29825;BME280;16713;52.916;12.834;2022-09-27T13:31:06;98833.63;;;12.77;73.74
29825;BME280;16713;52.916;12.834;2022-09-27T13:41:27;98852.97;;;12.96;74.12
29825;BME280;16713;52.916;12.834;2022-09-27T13:44:08;98853.22;;;13.05;74.71
29825;BME280;16713;52.916;12.834;2022-09-27T13:46:46;98865.53;;;12.97;73.65
29825;BME280;16713;52.916;12.834;2022-09-27T13:49:19;98870.53;;;13.06;74.30
29825;BME280;16713;52.916;12.834;2022-09-27T13:51:49;98864.72;;;13.00;73.37
29825;BME280;16713;52.916;12.834;2022-09-27T13:54:34;98868.16;;;13.04;73.36
29825;BME280;16713;52.916;12.834;2022-09-27T13:57:01;98874.50;;;13.01;74.38
29825;BME280;16713;52.916;12.834;2022-09-27T13:59:44;98873.47;;;12.92;73.33
29825;BME280;16713;52.916;12.834;2022-09-27T14:02:19;98879.59;;;13.03;74.76
29825;BME280;16713;52.916;12.834;2022-09-27T14:04:47;98874.50;;;13.01;75.04
29825;BME280;16713;52.916;12.834;2022-09-27T14:07:16;98863.59;;;12.64;72.45
29825;BME280;16713;52.916;12.834;2022-09-27T14:09:44;98873.25;;;12.79;74.43
29825;BME280;16713;52.916;12.834;2022-09-27T14:12:17;98866.66;;;12.73;74.35
29825;BME280;16713;52.916;12.834;2022-09-27T14:14:44;98874.81;;;12.80;75.41
29825;BME280;16713;52.916;12.834;2022-09-27T14:17:12;98870.06;;;12.84;74.99
29825;BME280;16713;52.916;12.834;2022-09-27T14:19:39;98871.72;;;12.78;74.17
29825;BME280;16713;52.916;12.834;2022-09-27T14:22:16;98880.22;;;12.87;74.08
29825;BME280;16713;52.916;12.834;2022-09-27T14:24:44;98875.13;;;12.86;73.04
29825;BME280;16713;52.916;12.834;2022-09-27T14:29:41;98878.09;;;12.72;73.90
29825;BME280;16713;52.916;12.834;2022-09-27T14:32:10;98873.50;;;12.58;73.47
29825;BME280;16713;52.916;12.834;2022-09-27T14:34:37;98880.94;;;12.61;73.78
29825;BME280;16713;52.916;12.834;2022-09-27T14:37:04;98885.72;;;12.57;72.73
29825;BME280;16713;52.916;12.834;2022-09-27T14:39:53;98876.38;;;12.51;73.04
29825;BME280;16713;52.916;12.834;2022-09-27T14:42:20;98883.88;;;12.47;73.34
29825;BME280;16713;52.916;12.834;2022-09-27T14:44:48;98889.19;;;12.61;73.32
29825;BME280;16713;52.916;12.834;2022-09-27T14:47:16;98889.47;;;12.74;72.63
29825;BME280;16713;52.916;12.834;2022-09-27T14:49:50;98897.00;;;12.66;72.56
29825;BME280;16713;52.916;12.834;2022-09-27T14:52:22;98890.41;;;12.57;71.97
29825;BME280;16713;52.916;12.834;2022-09-27T14:55:14;98907.31;;;12.25;72.95
29825;BME280;16713;52.916;12.834;2022-09-27T14:57:52;98903.66;;;12.35;73.11
29825;BME280;16713;52.916;12.834;2022-09-27T15:00:26;98908.03;;;12.29;73.47
29825;BME280;16713;52.916;12.834;2022-09-27T15:03:01;98913.84;;;12.38;72.35
29825;BME280;16713;52.916;12.834;2022-09-27T15:05:30;98915.44;;;12.32;72.47
29825;BME280;16713;52.916;12.834;2022-09-27T15:07:58;98925.97;;;12.41;72.40
29825;BME280;16713;52.916;12.834;2022-09-27T15:10:27;98915.97;;;12.24;72.07
29825;BME280;16713;52.916;12.834;2022-09-27T15:12:56;98920.22;;;12.28;72.31
29825;BME280;16713;52.916;12.834;2022-09-27T15:15:27;98923.34;;;12.30;73.53
29825;BME280;16713;52.916;12.834;2022-09-27T15:17:56;98928.75;;;12.37;73.30
29825;BME280;16713;52.916;12.834;2022-09-27T15:22:50;98934.81;;;12.59;71.85
29825;BME280;16713;52.916;12.834;2022-09-27T15:25:20;98935.94;;;12.61;72.13
29825;BME280;16713;52.916;12.834;2022-09-27T15:27:51;98939.09;;;12.60;71.88
29825;BME280;16713;52.916;12.834;2022-09-27T15:30:19;98945.78;;;12.62;71.40
29825;BME280;16713;52.916;12.834;2022-09-27T15:32:47;98952.22;;;12.82;71.18
29825;BME280;16713;52.916;12.834;2022-09-27T15:35:21;98947.34;;;12.60;70.96